KUNV/SCE METAR and TAF weather

Enter ICAO airport designator
Station Type Date Time Source
KUNV METAR 2022/01/25 04:35 UTC NOAA

KUNV 250435Z AUTO 00000KT 10SM OVC021 M02/M02 A2973 RMK AO2 T10211025


Station Type Date Time Source
KUNV Decoded METAR 2022/01/25 04:35 UTC NOAA

State College, University Park Airport, PA, United States (KUNV) 40-51N 077-51W
Jan 24, 2022 - 11:35 PM EST / 2022.01.25 0435 UTC
Wind: Calm:0
Visibility: 10 mile(s):0
Sky conditions: overcast
Temperature: 28.2 F (-2.1 C)
Dew Point: 27.5 F (-2.5 C)
Relative Humidity: 97%
Pressure (altimeter): 29.73 in. Hg (1006 hPa)
ob: KUNV 250435Z AUTO 00000KT 10SM OVC021 M02/M02 A2973 RMK AO2 T10211025
cycle: 4

Station Type Date Time Source
KUNV TAF 2022/01/25 03:06 UTC NOAA

TAF
AMD KUNV 250303Z 2503/2524 25005KT 3SM -SN SCT015 BKN025
FM250900 28008KT 5SM BR OVC035
FM251500 29006KT P6SM BKN035

Example: see airport list